ilmateenistus.ee keskkonnaagentuur.ee
EETN Tallinna lennuväli
FTEO31 EETN 211700
TAF EETN 211700Z 2118/2218 21013KT 9999 BKN015 TEMPO 2118/2206
    21017G30KT PROB40 TEMPO 2122/2202 BKN010 SCT020CB TEMPO 2202/2208
    3000 SHRA BKN005 SCT015CB BKN020 BECMG 2206/2208 27010KT SCT030=

METAR EETN 212220Z 21016G26KT 9999 OVC016 11/08 Q1013 =
Tallinna lennuväli
EEKA Kärdla lennuväli
METAR EEKA 212150Z NIL=
Kärdla lennuväli
EEKE Kuressaare lennuväli
METAR EEKE 212150Z AUTO 23013KT 200V260 9999NDV BKN014 BKN021 12/09 Q1016=
Kuressaare lennuväli
EEPU Pärnu lennuväli
METAR EEPU 212150Z NIL=
Pärnu lennuväli
EETU Tartu lennuväli
FCEO32 EETN 212000
TAF EETU 212000Z 2121/2203 21015KT 9999 SCT008 BECMG 2122/2124 BKN005
    SCT013CB PROB30 TEMPO 2200/2203 2000 BR=

METAR EETU 212220Z 22015KT 9999 SCT016 07/05 Q1018=
Tartu lennuväli
EEEI Ämari lennuväli
METAR EEEI 212150Z 19016KT 9999 OVC016 11/07 Q1013=
Ämari lennuväli